PCC weather

Puerto Rico Airport
Puerto Rico, Caquetá Department, Colombia

Public forecast

Using degrees Celsius for public forecast. Weather courtesy of forecast.io.

Closest aviation weather report (METAR) to Puerto Rico Airport

Report is more than 6 hours old.

Closest report is Eduardo Falla Solano Airport, 27.9 nm (51.6 km) ENE. Retrieved 2017/10/18 13:00 UTC (2 years ago):

SKSV 181300Z 04004KT 9999 SCT080 27/24 A3002

Closest aviation forecast (TAF) to Puerto Rico Airport

Closest forecast is Alfonso Bonilla Aragon International Airport, 121.8 nm (225.7 km) NW. Retrieved 2019/10/23 18:00 UTC (1 hour ago):

TAF SKCL 231630Z 2318/2418 32008KT 9999 SCT020TCU SCT120 PRBO40 TEMPO 2319/2322 8000 VCTS SCT018CB PROB30 TEMPO 2322/2324 7000 -TSRA SCT017CB BECMG 2400/2401 VRB02KT FEW015 BKN090 PROB40 TEMPO 2403/2407 7000 DZRA TEMPO 2410/2414 7000 VCFG SCT010 TX30/2319Z TN19/2411Z